sensor_id;sensor_type;location;lat;lon;timestamp;P1;durP1;ratioP1;P2;durP2;ratioP2
60979;SDS011;46851;49.160;8.980;2022-10-31T19:25:40;23.67;;;14.68;;
60979;SDS011;46851;49.160;8.980;2022-10-31T19:28:06;32.00;;;17.35;;
60979;SDS011;46851;49.160;8.980;2022-10-31T19:30:32;30.63;;;16.25;;
60979;SDS011;46851;49.160;8.980;2022-10-31T19:32:58;28.98;;;15.30;;
60979;SDS011;46851;49.160;8.980;2022-10-31T19:35:24;28.50;;;15.05;;
60979;SDS011;46851;49.160;8.980;2022-10-31T19:37:50;29.90;;;16.80;;
60979;SDS011;46851;49.160;8.980;2022-10-31T19:40:16;29.25;;;15.55;;
60979;SDS011;46851;49.160;8.980;2022-10-31T19:42:42;26.10;;;16.15;;
60979;SDS011;46851;49.160;8.980;2022-10-31T19:45:08;28.38;;;16.73;;
60979;SDS011;46851;49.160;8.980;2022-10-31T19:47:35;31.88;;;16.15;;
60979;SDS011;46851;49.160;8.980;2022-10-31T19:50:01;28.02;;;16.55;;
60979;SDS011;46851;49.160;8.980;2022-10-31T19:52:31;32.17;;;17.45;;
60979;SDS011;46851;49.160;8.980;2022-10-31T19:54:57;34.03;;;18.40;;
60979;SDS011;46851;49.160;8.980;2022-10-31T19:57:23;30.63;;;16.85;;
60979;SDS011;46851;49.160;8.980;2022-10-31T19:59:49;32.20;;;15.98;;
60979;SDS011;46851;49.160;8.980;2022-10-31T20:02:15;30.27;;;16.75;;
60979;SDS011;46851;49.160;8.980;2022-10-31T20:04:45;38.07;;;18.20;;
60979;SDS011;46851;49.160;8.980;2022-10-31T20:07:11;34.88;;;20.38;;
60979;SDS011;46851;49.160;8.980;2022-10-31T20:12:31;34.60;;;18.77;;
60979;SDS011;46851;49.160;8.980;2022-10-31T20:14:57;28.60;;;16.42;;
60979;SDS011;46851;49.160;8.980;2022-10-31T20:17:23;44.85;;;18.67;;
60979;SDS011;46851;49.160;8.980;2022-10-31T20:19:49;30.17;;;18.30;;
60979;SDS011;46851;49.160;8.980;2022-10-31T20:22:15;30.20;;;17.52;;
60979;SDS011;46851;49.160;8.980;2022-10-31T20:24:41;27.23;;;16.75;;
60979;SDS011;46851;49.160;8.980;2022-10-31T20:27:08;33.63;;;18.13;;
60979;SDS011;46851;49.160;8.980;2022-10-31T20:29:34;33.92;;;18.50;;
60979;SDS011;46851;49.160;8.980;2022-10-31T20:32:00;31.50;;;19.90;;
60979;SDS011;46851;49.160;8.980;2022-10-31T20:34:26;34.42;;;21.15;;
60979;SDS011;46851;49.160;8.980;2022-10-31T20:36:52;37.63;;;21.15;;
60979;SDS011;46851;49.160;8.980;2022-10-31T20:39:18;40.22;;;21.13;;
60979;SDS011;46851;49.160;8.980;2022-10-31T20:41:44;35.25;;;19.70;;
60979;SDS011;46851;49.160;8.980;2022-10-31T20:44:10;40.40;;;20.58;;
60979;SDS011;46851;49.160;8.980;2022-10-31T20:46:36;36.83;;;20.50;;
60979;SDS011;46851;49.160;8.980;2022-10-31T20:49:02;35.00;;;20.00;;
60979;SDS011;46851;49.160;8.980;2022-10-31T20:51:28;40.25;;;19.95;;
60979;SDS011;46851;49.160;8.980;2022-10-31T20:53:56;29.50;;;20.02;;
60979;SDS011;46851;49.160;8.980;2022-10-31T20:56:23;34.05;;;19.92;;
60979;SDS011;46851;49.160;8.980;2022-10-31T20:58:49;36.85;;;23.05;;
60979;SDS011;46851;49.160;8.980;2022-10-31T21:01:16;43.45;;;23.48;;
60979;SDS011;46851;49.160;8.980;2022-10-31T21:03:43;36.60;;;19.85;;
60979;SDS011;46851;49.160;8.980;2022-10-31T21:06:09;39.08;;;20.63;;
60979;SDS011;46851;49.160;8.980;2022-10-31T21:08:35;38.95;;;22.27;;
60979;SDS011;46851;49.160;8.980;2022-10-31T21:11:09;37.33;;;21.55;;
60979;SDS011;46851;49.160;8.980;2022-10-31T21:13:37;40.40;;;20.25;;
60979;SDS011;46851;49.160;8.980;2022-10-31T21:16:08;35.50;;;20.30;;
60979;SDS011;46851;49.160;8.980;2022-10-31T21:18:35;37.17;;;21.88;;
60979;SDS011;46851;49.160;8.980;2022-10-31T21:23:56;45.97;;;23.63;;
60979;SDS011;46851;49.160;8.980;2022-10-31T21:26:24;39.67;;;23.25;;
60979;SDS011;46851;49.160;8.980;2022-10-31T21:28:52;36.53;;;21.75;;
60979;SDS011;46851;49.160;8.980;2022-10-31T21:31:18;42.97;;;22.17;;
60979;SDS011;46851;49.160;8.980;2022-10-31T21:33:44;36.33;;;22.30;;
60979;SDS011;46851;49.160;8.980;2022-10-31T21:36:11;44.05;;;22.55;;
60979;SDS011;46851;49.160;8.980;2022-10-31T21:38:37;38.25;;;23.75;;
60979;SDS011;46851;49.160;8.980;2022-10-31T21:43:36;43.03;;;24.00;;
60979;SDS011;46851;49.160;8.980;2022-10-31T21:46:06;45.00;;;24.50;;
60979;SDS011;46851;49.160;8.980;2022-10-31T21:48:32;44.58;;;25.52;;
60979;SDS011;46851;49.160;8.980;2022-10-31T21:51:02;47.53;;;24.35;;
60979;SDS011;46851;49.160;8.980;2022-10-31T21:53:28;51.42;;;25.90;;
60979;SDS011;46851;49.160;8.980;2022-10-31T21:56:13;45.53;;;26.70;;
60979;SDS011;46851;49.160;8.980;2022-10-31T21:58:39;47.15;;;26.15;;
60979;SDS011;46851;49.160;8.980;2022-10-31T22:01:05;45.22;;;24.88;;
60979;SDS011;46851;49.160;8.980;2022-10-31T22:03:35;38.65;;;22.05;;
60979;SDS011;46851;49.160;8.980;2022-10-31T22:08:27;39.17;;;21.95;;
60979;SDS011;46851;49.160;8.980;2022-10-31T22:10:53;41.78;;;22.35;;
60979;SDS011;46851;49.160;8.980;2022-10-31T22:13:19;46.40;;;22.10;;
60979;SDS011;46851;49.160;8.980;2022-10-31T22:15:45;41.95;;;22.20;;
60979;SDS011;46851;49.160;8.980;2022-10-31T22:18:11;39.88;;;21.30;;
60979;SDS011;46851;49.160;8.980;2022-10-31T22:20:37;40.47;;;22.92;;
60979;SDS011;46851;49.160;8.980;2022-10-31T22:23:03;39.20;;;23.30;;
60979;SDS011;46851;49.160;8.980;2022-10-31T22:25:34;38.13;;;21.88;;
60979;SDS011;46851;49.160;8.980;2022-10-31T22:28:00;38.67;;;21.15;;
60979;SDS011;46851;49.160;8.980;2022-10-31T22:30:30;36.95;;;19.65;;
60979;SDS011;46851;49.160;8.980;2022-10-31T22:32:56;40.20;;;20.20;;
60979;SDS011;46851;49.160;8.980;2022-10-31T22:35:22;34.45;;;19.15;;
60979;SDS011;46851;49.160;8.980;2022-10-31T22:37:48;33.65;;;19.65;;
60979;SDS011;46851;49.160;8.980;2022-10-31T22:40:14;36.85;;;21.25;;
60979;SDS011;46851;49.160;8.980;2022-10-31T22:42:40;35.13;;;19.92;;
60979;SDS011;46851;49.160;8.980;2022-10-31T22:45:07;30.48;;;18.55;;
60979;SDS011;46851;49.160;8.980;2022-10-31T22:47:33;37.85;;;20.10;;
60979;SDS011;46851;49.160;8.980;2022-10-31T22:49:59;45.00;;;23.73;;
60979;SDS011;46851;49.160;8.980;2022-10-31T22:52:25;38.78;;;21.25;;
60979;SDS011;46851;49.160;8.980;2022-10-31T22:54:51;34.33;;;19.52;;
60979;SDS011;46851;49.160;8.980;2022-10-31T22:57:17;35.95;;;19.65;;
60979;SDS011;46851;49.160;8.980;2022-10-31T22:59:43;36.88;;;19.65;;
60979;SDS011;46851;49.160;8.980;2022-10-31T23:02:09;39.30;;;20.45;;
60979;SDS011;46851;49.160;8.980;2022-10-31T23:04:35;33.33;;;20.25;;
60979;SDS011;46851;49.160;8.980;2022-10-31T23:07:01;35.28;;;19.73;;
60979;SDS011;46851;49.160;8.980;2022-10-31T23:09:27;32.30;;;18.25;;
60979;SDS011;46851;49.160;8.980;2022-10-31T23:11:54;38.25;;;20.20;;
60979;SDS011;46851;49.160;8.980;2022-10-31T23:14:39;32.10;;;17.75;;
60979;SDS011;46851;49.160;8.980;2022-10-31T23:17:05;31.90;;;17.98;;
60979;SDS011;46851;49.160;8.980;2022-10-31T23:19:31;33.80;;;19.02;;
60979;SDS011;46851;49.160;8.980;2022-10-31T23:21:59;40.00;;;18.90;;
60979;SDS011;46851;49.160;8.980;2022-10-31T23:26:58;32.47;;;17.83;;
60979;SDS011;46851;49.160;8.980;2022-10-31T23:30:06;30.35;;;17.83;;
60979;SDS011;46851;49.160;8.980;2022-10-31T23:32:30;27.83;;;17.27;;
60979;SDS011;46851;49.160;8.980;2022-10-31T23:34:57;29.23;;;17.42;;
60979;SDS011;46851;49.160;8.980;2022-10-31T23:37:24;28.80;;;16.42;;
60979;SDS011;46851;49.160;8.980;2022-10-31T23:39:51;27.60;;;16.35;;
60979;SDS011;46851;49.160;8.980;2022-10-31T23:42:17;25.42;;;15.30;;
60979;SDS011;46851;49.160;8.980;2022-10-31T23:44:43;27.95;;;15.95;;
60979;SDS011;46851;49.160;8.980;2022-10-31T23:47:10;27.65;;;15.68;;
60979;SDS011;46851;49.160;8.980;2022-10-31T23:49:36;24.73;;;15.38;;
60979;SDS011;46851;49.160;8.980;2022-10-31T23:52:03;26.63;;;15.30;;
60979;SDS011;46851;49.160;8.980;2022-10-31T23:54:29;29.92;;;14.95;;
60979;SDS011;46851;49.160;8.980;2022-10-31T23:56:55;24.85;;;15.27;;
60979;SDS011;46851;49.160;8.980;2022-10-31T23:59:22;30.30;;;17.40;;
